Time;durP1;ratioP1;P1;durP2;ratioP2;P2;SDS_P1;SDS_P2;PMS_P1;PMS_P2;Temp;Humidity;BMP_temperature;BMP_pressure;BME280_temperature;BME280_humidity;BME280_pressure;Samples;Min_cycle;Max_cycle;Signal;HPM_P1;HPM_P2
2022/12/11 00:02:12;;;;;;;;;10.00;9.40;;;;;1.49;81.10;99386.38;5054803;28;8854;-57
2022/12/11 00:04:41;;;;;;;;;17.60;15.80;;;;;1.47;81.59;99385.63;5074497;28;9456;-59
2022/12/11 00:07:08;;;;;;;;;19.20;15.60;;;;;1.48;81.73;99379.44;5078150;28;8848;-58
2022/12/11 00:09:36;;;;;;;;;20.80;14.20;;;;;1.46;81.68;99383.91;5078113;28;8826;-59
2022/12/11 00:12:06;;;;;;;;;9.60;9.60;;;;;1.45;81.57;99382.22;5077966;28;9095;-58
2022/12/11 00:14:34;;;;;;;;;11.40;9.60;;;;;1.43;81.78;99377.97;5078266;28;8841;-58
2022/12/11 00:17:02;;;;;;;;;16.20;14.20;;;;;1.42;81.25;99385.00;5078245;28;8830;-58
2022/12/11 00:19:30;;;;;;;;;16.40;13.00;;;;;1.43;81.84;99377.97;5077938;28;8850;-57
2022/12/11 00:21:57;;;;;;;;;13.80;10.40;;;;;1.40;82.10;99379.00;5077510;28;8857;-57
2022/12/11 00:24:25;;;;;;;;;8.60;8.60;;;;;1.38;81.37;99380.00;5077519;28;8826;-59
2022/12/11 00:26:53;;;;;;;;;7.40;6.00;;;;;1.37;81.56;99378.31;5077860;28;8833;-58
2022/12/11 00:29:21;;;;;;;;;11.80;9.60;;;;;1.35;81.55;99373.13;5076454;28;8809;-59
2022/12/11 00:31:49;;;;;;;;;11.60;11.60;;;;;1.35;81.92;99374.91;5077489;28;8860;-58
2022/12/11 00:34:16;;;;;;;;;10.60;10.20;;;;;1.34;81.45;99376.69;5069177;28;8925;-58
2022/12/11 00:36:44;;;;;;;;;11.60;10.40;;;;;1.32;81.44;99378.56;5077792;28;8849;-59
2022/12/11 00:39:13;;;;;;;;;9.60;8.20;;;;;1.31;81.25;99383.88;5077812;28;8841;-59
2022/12/11 00:41:41;;;;;;;;;11.60;11.60;;;;;1.29;81.79;99380.47;5077572;28;8838;-55
2022/12/11 00:44:09;;;;;;;;;12.40;11.60;;;;;1.28;81.37;99384.88;5077017;28;8842;-59
2022/12/11 00:46:36;;;;;;;;;15.80;13.80;;;;;1.27;81.44;99379.69;5076667;28;8841;-59
2022/12/11 00:49:04;;;;;;;;;10.80;9.20;;;;;1.26;81.80;99376.25;5076555;28;8919;-59
2022/12/11 00:51:32;;;;;;;;;9.40;7.40;;;;;1.24;81.96;99388.59;5076679;28;8935;-58
2022/12/11 00:54:00;;;;;;;;;12.00;11.80;;;;;1.23;81.84;99381.63;5077272;28;8836;-59
2022/12/11 00:56:28;;;;;;;;;7.60;5.40;;;;;1.24;81.45;99388.59;5076847;28;8867;-59
2022/12/11 00:58:56;;;;;;;;;10.00;9.00;;;;;1.22;81.55;99385.19;5075995;28;8829;-58
2022/12/11 01:01:23;;;;;;;;;12.80;10.20;;;;;1.22;81.83;99386.97;5077465;28;9496;-59
2022/12/11 01:03:51;;;;;;;;;10.00;9.00;;;;;1.22;81.96;99385.19;5077294;28;8826;-58
2022/12/11 01:06:19;;;;;;;;;6.60;6.40;;;;;1.22;81.51;99379.09;5077409;28;8833;-59
2022/12/11 01:08:47;;;;;;;;;9.00;8.60;;;;;1.21;81.51;99380.03;5071676;28;8816;-58
2022/12/11 01:11:13;;;;;;;;;10.00;7.00;;;;;1.20;82.05;99376.56;5056822;28;8835;-59
2022/12/11 01:13:41;;;;;;;;;12.40;10.40;;;;;1.18;81.70;99380.16;5056737;28;8923;-59
2022/12/11 01:16:08;;;;;;;;;14.20;13.20;;;;;1.17;81.33;99383.72;5056099;28;8856;-59
2022/12/11 01:18:37;;;;;;;;;12.80;9.80;;;;;1.14;82.02;99391.75;5056617;28;8855;-59
2022/12/11 01:21:05;;;;;;;;;9.40;8.60;;;;;1.13;81.90;99393.50;5056606;28;8847;-59
2022/12/11 01:23:32;;;;;;;;;8.60;7.00;;;;;1.11;81.72;99395.38;5056861;28;8827;-58
2022/12/11 01:26:00;;;;;;;;;15.60;9.20;;;;;1.10;81.91;99392.81;5056969;28;8862;-59
2022/12/11 01:28:30;;;;;;;;;10.20;8.60;;;;;1.09;81.99;99394.63;5062656;28;8806;-58
2022/12/11 01:30:57;;;;;;;;;14.60;10.40;;;;;1.05;81.70;99385.19;5076878;28;8838;-58
2022/12/11 01:33:25;;;;;;;;;15.00;12.40;;;;;1.06;82.31;99393.91;5076678;28;8829;-59
2022/12/11 01:35:53;;;;;;;;;6.60;6.20;;;;;1.07;82.13;99393.00;5076434;28;8822;-59
2022/12/11 01:38:20;;;;;;;;;8.60;7.80;;;;;1.08;81.98;99392.88;5062001;28;8812;-59
2022/12/11 01:40:50;;;;;;;;;7.00;4.80;;;;;1.09;81.86;99391.13;5076078;28;9472;-58
2022/12/11 01:43:17;;;;;;;;;9.00;7.00;;;;;1.07;81.85;99393.81;5076333;28;8814;-58
2022/12/11 01:45:45;;;;;;;;;8.60;8.60;;;;;1.04;81.97;99393.13;5076476;28;8837;-59
2022/12/11 01:48:13;;;;;;;;;5.20;3.00;;;;;1.01;82.07;99386.25;5076608;28;8833;-59
2022/12/11 01:50:41;;;;;;;;;8.60;5.20;;;;;0.99;82.58;99392.53;5076254;28;8911;-58
2022/12/11 01:53:08;;;;;;;;;6.40;6.20;;;;;0.96;82.09;99385.66;5076413;28;8853;-58
2022/12/11 01:55:36;;;;;;;;;12.80;12.40;;;;;0.96;81.89;99388.28;5075800;28;8830;-59
2022/12/11 01:58:04;;;;;;;;;9.20;8.60;;;;;0.96;82.37;99390.91;5073299;28;8834;-59
2022/12/11 02:00:31;;;;;;;;;13.40;12.60;;;;;0.95;82.38;99385.72;5055625;28;8856;-58
2022/12/11 02:02:59;;;;;;;;;6.00;5.40;;;;;0.94;81.92;99382.28;5056458;28;8868;-59
2022/12/11 02:05:29;;;;;;;;;4.80;4.40;;;;;0.93;81.87;99391.03;5056403;28;8840;-59
2022/12/11 02:07:57;;;;;;;;;9.80;9.00;;;;;0.93;82.32;99392.81;5056280;28;8932;-59
2022/12/11 02:10:25;;;;;;;;;7.40;6.80;;;;;0.94;82.02;99395.38;5056022;28;8816;-58
2022/12/11 02:12:52;;;;;;;;;13.20;11.20;;;;;0.94;82.44;99379.66;5056364;28;8832;-59
2022/12/11 02:15:20;;;;;;;;;10.20;5.80;;;;;0.94;82.14;99387.50;5055854;28;8838;-59
2022/12/11 02:17:48;;;;;;;;;12.40;10.80;;;;;0.93;82.16;99383.16;5055885;28;8921;-59
2022/12/11 02:20:16;;;;;;;;;10.80;9.40;;;;;0.94;81.84;99384.91;5055669;28;8921;-58
2022/12/11 02:22:44;;;;;;;;;9.80;9.20;;;;;0.94;82.27;99379.66;5055826;28;8839;-58
2022/12/11 02:25:12;;;;;;;;;10.80;8.40;;;;;0.97;81.96;99383.88;5055889;28;8852;-58
2022/12/11 02:27:39;;;;;;;;;3.20;3.20;;;;;0.98;82.12;99381.19;5055498;28;8820;-59
2022/12/11 02:30:09;;;;;;;;;9.20;7.60;;;;;0.99;82.17;99384.66;5074799;28;8818;-59
2022/12/11 02:32:38;;;;;;;;;10.80;7.80;;;;;0.98;81.92;99375.94;5075961;28;8809;-59
2022/12/11 02:35:05;;;;;;;;;1.40;1.40;;;;;1.00;81.95;99379.31;5075813;28;9598;-58
2022/12/11 02:37:33;;;;;;;;;7.00;6.60;;;;;1.02;82.23;99376.63;5075531;28;9762;-58
2022/12/11 02:40:01;;;;;;;;;10.00;7.00;;;;;1.04;82.08;99374.78;5075162;28;8884;-59
2022/12/11 02:42:28;;;;;;;;;12.20;11.80;;;;;1.06;82.25;99371.16;5075328;28;8895;-58
2022/12/11 02:44:56;;;;;;;;;11.80;10.80;;;;;1.06;81.80;99373.78;5075168;28;8821;-59
2022/12/11 02:47:24;;;;;;;;;6.60;6.60;;;;;1.06;81.61;99373.78;5075678;28;8914;-59
2022/12/11 02:49:52;;;;;;;;;9.60;7.40;;;;;1.08;81.51;99381.56;5075612;28;8799;-59
2022/12/11 02:52:20;;;;;;;;;10.60;9.40;;;;;1.07;82.04;99378.09;5075460;28;8914;-59
2022/12/11 02:54:49;;;;;;;;;9.40;7.20;;;;;1.07;82.35;99369.41;5075567;28;8856;-58
2022/12/11 02:57:17;;;;;;;;;8.20;8.20;;;;;1.06;82.23;99376.41;5075990;28;8849;-59
2022/12/11 02:59:45;;;;;;;;;7.20;4.40;;;;;1.07;82.48;99366.78;5059069;28;8889;-59
2022/12/11 03:02:12;;;;;;;;;7.80;6.20;;;;;1.07;82.23;99364.16;5055401;28;8839;-59
2022/12/11 03:04:40;;;;;;;;;11.40;10.60;;;;;1.09;82.40;99362.28;5055819;28;8831;-59
2022/12/11 03:07:10;;;;;;;;;10.00;5.20;;;;;1.08;81.49;99356.19;5055682;28;8860;-59
2022/12/11 03:09:39;;;;;;;;;8.60;7.80;;;;;1.10;81.72;99356.13;5055343;28;8816;-59
2022/12/11 03:12:07;;;;;;;;;9.60;5.20;;;;;1.10;81.74;99356.13;5055891;28;8820;-58
2022/12/11 03:14:34;;;;;;;;;7.40;7.00;;;;;1.10;82.31;99358.75;5055448;28;9497;-58
2022/12/11 03:17:02;;;;;;;;;12.00;11.20;;;;;1.12;81.76;99351.63;5055777;28;9517;-59
2022/12/11 03:19:30;;;;;;;;;8.60;7.00;;;;;1.13;82.26;99359.44;5055282;28;8868;-59
2022/12/11 03:21:59;;;;;;;;;9.60;8.20;;;;;1.13;81.77;99354.19;5055564;28;9541;-59
2022/12/11 03:24:26;;;;;;;;;10.60;9.60;;;;;1.14;81.77;99350.63;5055767;28;8816;-59
2022/12/11 03:26:54;;;;;;;;;8.60;7.80;;;;;1.13;81.43;99354.19;5055742;28;8840;-58
2022/12/11 03:29:23;;;;;;;;;6.60;6.00;;;;;1.14;82.14;99348.03;5067707;28;9488;-59
2022/12/11 03:31:55;;;;;;;;;9.00;7.00;;;;;1.15;82.24;99352.34;5074517;28;8829;-59
2022/12/11 03:34:23;;;;;;;;;7.80;6.60;;;;;1.18;81.97;99351.34;5074712;28;8914;-59
2022/12/11 03:36:51;;;;;;;;;4.40;3.60;;;;;1.18;81.90;99354.81;5074308;28;8838;-59
2022/12/11 03:39:18;;;;;;;;;5.60;5.40;;;;;1.18;81.84;99356.56;5075255;28;8818;-58
2022/12/11 03:41:46;;;;;;;;;8.20;7.80;;;;;1.19;81.93;99361.75;5078574;28;8833;-58
2022/12/11 03:44:14;;;;;;;;;2.20;2.20;;;;;1.21;81.51;99356.44;5077793;28;8840;-59
2022/12/11 03:46:41;;;;;;;;;7.40;6.20;;;;;1.21;82.14;99357.25;5078510;28;8852;-59
2022/12/11 03:49:09;;;;;;;;;8.40;8.40;;;;;1.20;81.88;99345.09;5078553;28;8829;-58
2022/12/11 03:51:37;;;;;;;;;4.40;3.20;;;;;1.22;81.82;99351.09;5078273;28;8809;-59
2022/12/11 03:54:04;;;;;;;;;6.00;4.80;;;;;1.25;81.89;99343.09;5078290;28;8834;-59
2022/12/11 03:56:32;;;;;;;;;12.40;10.80;;;;;1.26;81.68;99342.16;5078036;28;8923;-59
2022/12/11 03:59:00;;;;;;;;;6.00;5.60;;;;;1.25;81.98;99340.47;5068025;28;8882;-58
2022/12/11 04:01:28;;;;;;;;;13.60;13.40;;;;;1.26;81.29;99343.91;5058276;28;8820;-59
2022/12/11 04:03:55;;;;;;;;;7.60;5.80;;;;;1.26;82.21;99343.91;5057940;28;8836;-58
2022/12/11 04:06:23;;;;;;;;;9.00;6.40;;;;;1.25;82.21;99337.84;5058030;28;8848;-59
2022/12/11 04:08:51;;;;;;;;;10.00;8.60;;;;;1.26;82.17;99346.53;5058308;28;8856;-59
2022/12/11 04:11:35;;;;;;;;;11.60;11.20;;;;;1.25;81.95;99345.72;5058643;28;9490;-59
2022/12/11 04:16:48;;;;;;;;;6.00;6.00;;;;;1.29;82.07;99347.22;5058732;28;8860;-59
2022/12/11 04:24:55;;;;;;;;;8.40;6.60;;;;;1.34;82.29;99349.63;4999901;28;8848;-59
2022/12/11 04:30:08;;;;;;;;;9.60;9.60;;;;;1.34;82.20;99352.22;5076119;28;8810;-56
2022/12/11 04:32:36;;;;;;;;;12.60;10.00;;;;;1.34;82.40;99350.47;5078441;28;8848;-57
2022/12/11 04:35:04;;;;;;;;;12.20;9.40;;;;;1.32;82.07;99354.97;5078137;28;9499;-56
2022/12/11 04:37:31;;;;;;;;;14.00;10.00;;;;;1.31;81.78;99350.63;5077523;28;8846;-56
2022/12/11 04:39:59;;;;;;;;;7.40;6.40;;;;;1.32;81.63;99354.97;5077191;28;8814;-58
2022/12/11 04:42:27;;;;;;;;;6.80;6.40;;;;;1.33;82.18;99361.88;5061199;28;8815;-58
2022/12/11 04:44:54;;;;;;;;;7.40;6.60;;;;;1.35;81.76;99359.16;5058110;28;8832;-58
2022/12/11 04:47:23;;;;;;;;;8.40;8.40;;;;;1.35;81.88;99349.53;5058120;28;8921;-59
2022/12/11 04:49:51;;;;;;;;;6.80;4.20;;;;;1.36;81.55;99350.41;5057543;28;8852;-58
2022/12/11 04:52:18;;;;;;;;;12.00;9.80;;;;;1.36;82.31;99346.00;5077321;28;8871;-58
2022/12/11 04:54:46;;;;;;;;;6.80;6.80;;;;;1.38;81.74;99344.13;5077786;28;8833;-59
2022/12/11 04:57:15;;;;;;;;;7.00;6.40;;;;;1.37;81.75;99337.19;5077744;28;8844;-59
2022/12/11 04:59:45;;;;;;;;;11.00;9.80;;;;;1.38;82.43;99338.88;5077769;28;8809;-57
2022/12/11 05:02:12;;;;;;;;;1.80;1.80;;;;;1.39;81.98;99345.84;5077860;28;8857;-58
2022/12/11 05:04:40;;;;;;;;;10.80;6.60;;;;;1.39;81.73;99344.97;5078173;28;9518;-59
2022/12/11 05:07:08;;;;;;;;;6.00;4.20;;;;;1.38;81.67;99338.88;5077620;28;8926;-59
2022/12/11 05:09:35;;;;;;;;;10.80;9.40;;;;;1.38;81.92;99338.06;5077637;28;8810;-59
2022/12/11 05:12:04;;;;;;;;;14.60;10.80;;;;;1.35;82.21;99344.28;5077437;28;8829;-59
2022/12/11 05:14:32;;;;;;;;;9.80;9.80;;;;;1.34;81.61;99353.09;5077175;28;8876;-59
2022/12/11 05:16:59;;;;;;;;;10.40;10.00;;;;;1.33;82.16;99345.28;5077435;28;8829;-58
2022/12/11 05:19:27;;;;;;;;;9.40;7.80;;;;;1.33;81.56;99347.91;5077410;28;8822;-59
2022/12/11 05:21:55;;;;;;;;;15.80;11.80;;;;;1.32;82.25;99344.47;5060505;28;8898;-58
2022/12/11 05:24:22;;;;;;;;;4.00;3.40;;;;;1.31;82.02;99341.91;5057192;28;8846;-59
2022/12/11 05:26:50;;;;;;;;;8.60;6.40;;;;;1.29;81.68;99344.59;5057409;28;8832;-59
2022/12/11 05:29:17;;;;;;;;;7.80;7.40;;;;;1.29;82.05;99349.84;5056922;28;8828;-58
2022/12/11 05:31:45;;;;;;;;;15.20;14.60;;;;;1.28;82.40;99348.16;5056865;28;8905;-59
2022/12/11 05:34:14;;;;;;;;;9.20;7.80;;;;;1.27;81.86;99346.47;5056899;28;8902;-58
2022/12/11 05:36:42;;;;;;;;;12.20;10.80;;;;;1.27;82.28;99343.84;5071593;28;8877;-59
2022/12/11 05:39:10;;;;;;;;;23.40;18.80;;;;;1.26;81.56;99339.53;5076820;28;8876;-59
2022/12/11 05:41:38;;;;;;;;;10.80;10.40;;;;;1.26;82.19;99343.91;5077083;28;8837;-58
2022/12/11 05:44:05;;;;;;;;;6.00;3.80;;;;;1.24;82.20;99338.78;5075800;28;8830;-58
2022/12/11 05:46:34;;;;;;;;;9.20;8.20;;;;;1.23;82.06;99338.84;5076652;28;9525;-59
2022/12/11 05:49:04;;;;;;;;;15.00;11.20;;;;;1.24;82.15;99346.66;5076376;28;8822;-59
2022/12/11 05:51:33;;;;;;;;;13.00;11.60;;;;;1.25;82.79;99334.38;5076418;28;8876;-59
2022/12/11 05:54:00;;;;;;;;;12.60;11.20;;;;;1.25;81.97;99339.59;5076551;28;8837;-59
2022/12/11 05:56:28;;;;;;;;;15.40;10.80;;;;;1.26;81.94;99331.66;5076627;28;8842;-58
2022/12/11 05:58:56;;;;;;;;;13.00;9.40;;;;;1.28;82.03;99337.69;5076659;28;8822;-56
2022/12/11 06:01:23;;;;;;;;;8.80;6.20;;;;;1.28;82.65;99335.06;5076022;28;8835;-57
2022/12/11 06:03:51;;;;;;;;;14.60;12.40;;;;;1.30;81.64;99333.19;5076176;28;8842;-59
2022/12/11 06:06:19;;;;;;;;;13.40;12.20;;;;;1.32;82.22;99331.34;5075651;28;8826;-58
2022/12/11 06:08:47;;;;;;;;;16.80;11.60;;;;;1.32;82.03;99344.47;5076622;28;8802;-58
2022/12/11 06:11:14;;;;;;;;;9.60;6.80;;;;;1.30;82.21;99330.56;5076420;28;8900;-58
2022/12/11 06:13:51;;;;;;;;;3.40;3.40;;;;;1.29;82.10;99336.75;5076381;28;8840;-56
2022/12/11 06:16:19;;;;;;;;;15.40;13.40;;;;;1.28;82.26;99319.31;5076701;28;8829;-57
2022/12/11 06:18:46;;;;;;;;;7.40;4.00;;;;;1.28;82.04;99324.56;5075898;28;8952;-58
2022/12/11 06:21:14;;;;;;;;;9.60;9.40;;;;;1.28;82.73;99327.19;5065362;28;8881;-59
2022/12/11 06:23:42;;;;;;;;;11.00;9.80;;;;;1.29;82.03;99322.81;5056247;28;8827;-58
2022/12/11 06:26:10;;;;;;;;;9.20;8.00;;;;;1.28;82.20;99321.13;5055879;28;8820;-56
2022/12/11 06:28:38;;;;;;;;;10.00;8.60;;;;;1.28;82.12;99319.31;5057817;28;8836;-58
2022/12/11 06:31:05;;;;;;;;;11.20;9.60;;;;;1.27;82.45;99315.00;5076127;28;8856;-58
2022/12/11 06:33:33;;;;;;;;;8.60;8.20;;;;;1.28;82.47;99321.13;5075532;28;8880;-58
2022/12/11 06:36:01;;;;;;;;;9.40;7.60;;;;;1.28;81.99;99316.69;5075354;28;9459;-58
2022/12/11 06:38:28;;;;;;;;;10.80;9.00;;;;;1.28;81.97;99319.31;5075620;28;8830;-58
2022/12/11 06:40:56;;;;;;;;;10.00;10.00;;;;;1.28;82.21;99314.06;5074419;28;8836;-59
2022/12/11 06:43:24;;;;;;;;;14.80;11.80;;;;;1.30;81.76;99311.38;5074809;28;8826;-58
2022/12/11 06:45:51;;;;;;;;;7.40;6.60;;;;;1.30;82.44;99314.00;5074357;28;8922;-58
2022/12/11 06:48:20;;;;;;;;;8.20;7.80;;;;;1.30;82.35;99321.88;5074803;28;8817;-59
2022/12/11 06:50:48;;;;;;;;;2.00;1.40;;;;;1.29;82.58;99318.38;5074452;28;8844;-59
2022/12/11 06:53:16;;;;;;;;;11.80;10.00;;;;;1.29;82.30;99323.63;5075296;28;9556;-57
2022/12/11 06:55:44;;;;;;;;;11.00;11.00;;;;;1.30;82.50;99319.25;5075578;28;8829;-57
2022/12/11 06:58:11;;;;;;;;;6.80;6.60;;;;;1.30;82.14;99320.06;5075641;28;8817;-56
2022/12/11 07:00:39;;;;;;;;;15.60;11.60;;;;;1.29;82.48;99323.63;5075885;28;9538;-58
2022/12/11 07:03:08;;;;;;;;;11.40;9.80;;;;;1.29;82.34;99322.81;5075518;28;8837;-56
2022/12/11 07:05:35;;;;;;;;;8.00;8.00;;;;;1.28;81.92;99319.31;5075720;28;8829;-56
2022/12/11 07:08:03;;;;;;;;;4.40;3.20;;;;;1.28;82.31;99319.31;5075558;28;8850;-58
2022/12/11 07:10:31;;;;;;;;;10.40;8.20;;;;;1.29;82.49;99321.00;5074804;28;9658;-59
2022/12/11 07:12:58;;;;;;;;;9.40;7.40;;;;;1.30;81.79;99330.56;5075738;28;8845;-58
2022/12/11 07:15:27;;;;;;;;;10.20;6.60;;;;;1.29;82.25;99328.88;5079837;28;8825;-58
2022/12/11 07:17:54;;;;;;;;;9.40;8.60;;;;;1.31;81.87;99331.44;5079723;28;8872;-57
2022/12/11 07:20:22;;;;;;;;;9.40;7.80;;;;;1.29;82.53;99326.25;5078653;28;8819;-56
2022/12/11 07:22:49;;;;;;;;;9.20;7.40;;;;;1.30;81.85;99329.75;5079342;28;8845;-56
2022/12/11 07:25:17;;;;;;;;;8.20;7.00;;;;;1.29;82.30;99328.88;5079323;28;8832;-58
2022/12/11 07:27:45;;;;;;;;;6.00;4.80;;;;;1.31;82.05;99339.28;5079507;28;8968;-57
2022/12/11 07:30:14;;;;;;;;;8.60;7.80;;;;;1.29;82.40;99320.19;5079734;28;9561;-58
2022/12/11 07:32:42;;;;;;;;;6.00;5.60;;;;;1.29;82.39;99323.63;5079242;28;8806;-56
2022/12/11 07:35:09;;;;;;;;;4.80;4.00;;;;;1.29;82.26;99325.44;5079368;28;9519;-57
2022/12/11 07:37:38;;;;;;;;;4.80;2.60;;;;;1.29;82.49;99322.81;5079667;28;9608;-56
2022/12/11 07:40:06;;;;;;;;;7.80;5.00;;;;;1.29;82.38;99334.13;5078773;28;8822;-56
2022/12/11 07:42:34;;;;;;;;;5.60;5.60;;;;;1.28;82.44;99332.44;5078342;28;8846;-57
2022/12/11 07:45:02;;;;;;;;;8.60;7.80;;;;;1.28;82.17;99327.19;5078592;28;9488;-57
2022/12/11 07:47:29;;;;;;;;;3.20;2.60;;;;;1.28;82.16;99329.81;5078609;28;9511;-56
2022/12/11 07:49:57;;;;;;;;;6.40;4.80;;;;;1.29;82.44;99326.25;5077849;28;8964;-57
2022/12/11 07:52:26;;;;;;;;;4.40;4.00;;;;;1.29;82.09;99328.88;5076367;28;8839;-58
2022/12/11 07:54:53;;;;;;;;;7.20;6.20;;;;;1.31;82.30;99332.25;5076381;28;8858;-56
2022/12/11 07:57:21;;;;;;;;;6.80;5.00;;;;;1.34;82.25;99334.75;5075913;28;8837;-56
2022/12/11 07:59:49;;;;;;;;;6.40;6.40;;;;;1.35;82.29;99338.19;5076610;28;8830;-57
2022/12/11 08:02:17;;;;;;;;;6.60;5.60;;;;;1.36;81.89;99332.03;5068559;28;8842;-57
2022/12/11 08:04:47;;;;;;;;;3.60;3.60;;;;;1.37;82.44;99344.22;5076439;28;8856;-58
2022/12/11 08:07:14;;;;;;;;;6.60;6.00;;;;;1.39;82.18;99331.88;5077097;28;8850;-57
2022/12/11 08:09:42;;;;;;;;;3.40;3.40;;;;;1.38;82.17;99338.06;5077754;28;8834;-58
2022/12/11 08:12:10;;;;;;;;;12.80;12.40;;;;;1.38;82.17;99330.19;5078464;28;8813;-57
2022/12/11 08:14:39;;;;;;;;;6.40;5.60;;;;;1.39;82.41;99331.88;5078612;28;8839;-56
2022/12/11 08:17:07;;;;;;;;;3.00;3.00;;;;;1.40;82.68;99330.94;5077442;28;8975;-57
2022/12/11 08:19:34;;;;;;;;;3.80;3.80;;;;;1.40;82.07;99336.19;5078233;28;8826;-57
2022/12/11 08:22:02;;;;;;;;;7.40;5.20;;;;;1.40;82.12;99331.81;5061628;28;8817;-56
2022/12/11 08:24:30;;;;;;;;;1.40;0.20;;;;;1.40;81.92;99337.03;5057964;28;8838;-58
2022/12/11 08:26:58;;;;;;;;;4.60;3.40;;;;;1.40;82.18;99337.03;5057654;28;8820;-56
2022/12/11 08:29:27;;;;;;;;;8.40;7.60;;;;;1.39;81.79;99335.34;5059578;28;8820;-58
2022/12/11 08:31:55;;;;;;;;;7.40;7.00;;;;;1.41;81.80;99343.97;5058047;28;8824;-57
2022/12/11 08:34:23;;;;;;;;;6.40;6.40;;;;;1.42;82.35;99340.44;5058229;28;8855;-58
2022/12/11 08:36:51;;;;;;;;;8.80;7.40;;;;;1.45;82.46;99336.81;5074080;28;9487;-58
2022/12/11 08:39:19;;;;;;;;;9.00;5.60;;;;;1.49;81.83;99331.31;5078081;28;8822;-58
2022/12/11 08:41:49;;;;;;;;;15.00;13.00;;;;;1.50;81.79;99333.00;5077861;28;8856;-57
2022/12/11 08:44:17;;;;;;;;;3.20;3.20;;;;;1.53;82.25;99332.00;5077631;28;8814;-57
2022/12/11 08:46:44;;;;;;;;;7.20;7.20;;;;;1.52;82.01;99331.13;5077061;28;8854;-56
2022/12/11 08:49:12;;;;;;;;;6.00;6.00;;;;;1.51;82.09;99329.44;5077633;28;8830;-58
2022/12/11 08:51:40;;;;;;;;;2.60;2.60;;;;;1.51;81.99;99332.06;5077217;28;9472;-58
2022/12/11 08:54:09;;;;;;;;;5.60;4.00;;;;;1.51;82.29;99334.69;5077048;28;8840;-57
2022/12/11 08:56:37;;;;;;;;;7.00;6.20;;;;;1.52;82.07;99331.13;5077434;28;8840;-56
2022/12/11 08:59:05;;;;;;;;;0.40;0.40;;;;;1.53;82.18;99326.75;5076443;28;8899;-57
2022/12/11 09:01:33;;;;;;;;;6.80;6.80;;;;;1.54;82.13;99325.81;5077531;28;8864;-58
2022/12/11 09:04:01;;;;;;;;;10.20;5.60;;;;;1.53;82.05;99327.56;5077275;28;8931;-58
2022/12/11 09:06:31;;;;;;;;;9.00;7.20;;;;;1.54;82.17;99323.19;5077140;28;8826;-57
2022/12/11 09:08:58;;;;;;;;;4.80;4.80;;;;;1.53;82.12;99324.94;5076405;28;8852;-58
2022/12/11 09:11:26;;;;;;;;;7.40;7.00;;;;;1.54;81.42;99336.31;5076510;28;8848;-58
2022/12/11 09:13:54;;;;;;;;;4.00;3.40;;;;;1.53;81.57;99327.56;5076729;28;8846;-58
2022/12/11 09:16:22;;;;;;;;;4.00;4.00;;;;;1.54;81.81;99333.69;5076846;28;8923;-58
2022/12/11 09:18:51;;;;;;;;;4.00;3.00;;;;;1.55;81.41;99336.25;5076459;28;8850;-58
2022/12/11 09:21:19;;;;;;;;;1.00;0.00;;;;;1.56;81.57;99331.81;5067352;28;8819;-58
2022/12/11 09:23:47;;;;;;;;;7.40;7.40;;;;;1.57;81.81;99329.13;5056335;28;8816;-58
2022/12/11 09:26:15;;;;;;;;;11.20;9.80;;;;;1.55;81.97;99336.25;5056804;28;9486;-59
2022/12/11 09:28:43;;;;;;;;;7.80;5.80;;;;;1.55;81.90;99341.47;5057332;28;8974;-58
2022/12/11 09:31:13;;;;;;;;;12.20;11.20;;;;;1.56;81.16;99334.44;5056782;28;8866;-59
2022/12/11 09:33:41;;;;;;;;;3.00;2.20;;;;;1.56;81.32;99337.06;5056070;28;8824;-59
2022/12/11 09:36:09;;;;;;;;;6.00;5.60;;;;;1.54;81.37;99344.19;5066579;28;8836;-58
2022/12/11 09:38:36;;;;;;;;;6.40;5.20;;;;;1.51;81.89;99339.94;5075639;28;8834;-58
2022/12/11 09:41:05;;;;;;;;;5.20;4.40;;;;;1.51;82.00;99332.06;5074956;28;8884;-59
2022/12/11 09:43:32;;;;;;;;;1.40;1.40;;;;;1.51;81.52;99332.06;5075306;28;8877;-58
2022/12/11 09:46:00;;;;;;;;;3.60;3.60;;;;;1.50;81.43;99333.00;5075162;28;8845;-58
2022/12/11 09:48:29;;;;;;;;;7.80;5.20;;;;;1.50;81.83;99326.91;5075269;28;8918;-59
2022/12/11 09:50:57;;;;;;;;;5.20;5.20;;;;;1.49;82.10;99326.06;5074605;28;8818;-58
2022/12/11 09:53:25;;;;;;;;;4.80;4.80;;;;;1.53;81.62;99324.13;5075614;28;8822;-59
2022/12/11 09:56:00;;;;;;;;;4.00;4.00;;;;;1.53;81.75;99332.81;5075583;28;8856;-58
2022/12/11 09:58:27;;;;;;;;;5.60;5.60;;;;;1.53;81.25;99332.81;5075192;28;8838;-55
2022/12/11 10:00:55;;;;;;;;;6.00;5.20;;;;;1.54;81.25;99331.06;5073659;28;8802;-59
2022/12/11 10:03:23;;;;;;;;;3.80;3.80;;;;;1.53;81.17;99327.56;5075563;28;8837;-59
2022/12/11 10:05:52;;;;;;;;;3.20;3.00;;;;;1.52;81.24;99325.88;5074979;28;8840;-58
2022/12/11 10:08:20;;;;;;;;;6.00;4.00;;;;;1.53;81.52;99316.25;5075123;28;8838;-59
2022/12/11 10:10:48;;;;;;;;;6.20;5.60;;;;;1.53;81.30;99316.25;5075516;28;8854;-56
2022/12/11 10:13:16;;;;;;;;;3.60;2.20;;;;;1.53;81.27;99314.47;5074988;28;9640;-58
2022/12/11 10:15:43;;;;;;;;;3.80;3.80;;;;;1.51;81.26;99315.50;5075241;28;8991;-58
2022/12/11 10:18:12;;;;;;;;;6.20;6.00;;;;;1.50;81.09;99314.63;5075241;28;8828;-57
2022/12/11 10:20:41;;;;;;;;;8.20;6.00;;;;;1.51;80.78;99308.47;5067746;28;8816;-59
2022/12/11 10:23:09;;;;;;;;;6.80;3.80;;;;;1.52;81.63;99315.41;5055162;28;8831;-59
2022/12/11 10:25:37;;;;;;;;;5.60;3.20;;;;;1.53;81.18;99316.25;5055221;28;8828;-58
2022/12/11 10:28:05;;;;;;;;;7.80;6.60;;;;;1.51;81.63;99312.88;5055177;28;8836;-57
2022/12/11 10:30:33;;;;;;;;;7.40;6.80;;;;;1.51;81.39;99318.94;5055111;28;8994;-58
2022/12/11 10:33:01;;;;;;;;;4.20;4.20;;;;;1.50;80.94;99309.41;5054262;28;8828;-57
2022/12/11 10:35:29;;;;;;;;;4.60;3.40;;;;;1.47;80.84;99314.81;5057543;28;8832;-57
2022/12/11 10:37:57;;;;;;;;;7.00;7.00;;;;;1.47;81.21;99306.09;5072406;28;8826;-58
2022/12/11 10:40:25;;;;;;;;;4.80;3.60;;;;;1.48;80.96;99308.63;5073211;28;8845;-58
2022/12/11 10:42:54;;;;;;;;;6.00;3.20;;;;;1.47;80.96;99304.31;5073060;28;8982;-58
2022/12/11 10:45:23;;;;;;;;;6.00;6.00;;;;;1.46;81.28;99299.16;5072923;28;8834;-58
2022/12/11 10:47:51;;;;;;;;;3.00;1.80;;;;;1.46;80.84;99310.47;5072135;28;8955;-58
2022/12/11 10:50:19;;;;;;;;;0.60;0.60;;;;;1.45;81.11;99305.31;5073218;28;8814;-56
2022/12/11 10:52:47;;;;;;;;;6.40;6.20;;;;;1.47;80.95;99304.31;5073634;28;8856;-56
2022/12/11 10:55:16;;;;;;;;;3.40;3.40;;;;;1.49;81.11;99301.59;5074040;28;8833;-57
2022/12/11 10:57:45;;;;;;;;;4.80;4.00;;;;;1.53;81.04;99298.72;5074714;28;8844;-57
2022/12/11 11:00:12;;;;;;;;;6.00;5.00;;;;;1.58;81.01;99293.22;5074797;28;8846;-58
2022/12/11 11:02:40;;;;;;;;;3.40;3.40;;;;;1.62;81.34;99295.63;5074238;28;8838;-56
2022/12/11 11:05:08;;;;;;;;;2.20;1.00;;;;;1.65;80.78;99290.22;5073561;28;8837;-58
2022/12/11 11:07:37;;;;;;;;;8.60;6.80;;;;;1.67;81.14;99283.09;5071346;28;8814;-57
2022/12/11 11:10:05;;;;;;;;;3.40;3.40;;;;;1.72;81.18;99291.56;5070821;28;8822;-55
2022/12/11 11:12:33;;;;;;;;;3.80;3.00;;;;;1.74;80.98;99292.31;5053901;28;8862;-58
2022/12/11 11:15:01;;;;;;;;;7.00;7.00;;;;;1.76;80.66;99285.22;5054394;28;8836;-56
2022/12/11 11:17:29;;;;;;;;;5.60;5.60;;;;;1.78;80.53;99291.25;5054466;28;8847;-59
2022/12/11 11:20:01;;;;;;;;;3.00;3.00;;;;;1.79;80.87;99287.69;5063121;28;8817;-58
2022/12/11 11:22:29;;;;;;;;;15.00;9.80;;;;;1.81;80.74;99283.19;5054731;28;8819;-57
2022/12/11 11:24:57;;;;;;;;;4.00;1.00;;;;;1.84;80.42;99279.56;5073513;28;8818;-59
2022/12/11 11:27:25;;;;;;;;;4.00;4.00;;;;;1.84;80.64;99284.81;5074412;28;8860;-59
2022/12/11 11:29:53;;;;;;;;;3.80;3.20;;;;;1.84;80.24;99279.56;5074303;28;8847;-58
2022/12/11 11:32:21;;;;;;;;;5.40;5.40;;;;;1.84;80.73;99280.41;5073615;28;8849;-59
2022/12/11 11:34:49;;;;;;;;;1.00;1.00;;;;;1.86;80.53;99275.06;5073514;28;8880;-58
2022/12/11 11:37:17;;;;;;;;;3.60;3.20;;;;;1.89;80.29;99270.50;5073240;28;8863;-58
2022/12/11 11:39:46;;;;;;;;;2.60;1.00;;;;;1.92;80.49;99270.34;5073678;28;8829;-58
2022/12/11 11:42:14;;;;;;;;;4.80;3.60;;;;;1.95;80.73;99269.28;5072784;28;8956;-58
2022/12/11 11:44:43;;;;;;;;;7.00;5.60;;;;;1.97;80.27;99265.66;5073522;28;9486;-59
2022/12/11 11:47:12;;;;;;;;;3.80;3.60;;;;;2.00;80.36;99259.41;5074859;28;9532;-56
2022/12/11 11:49:40;;;;;;;;;2.20;1.80;;;;;2.01;79.87;99261.94;5073815;28;8822;-57
2022/12/11 11:52:08;;;;;;;;;13.40;11.20;;;;;2.01;80.12;99267.19;5071866;28;8822;-56
2022/12/11 11:54:36;;;;;;;;;7.80;3.80;;;;;2.00;80.53;99267.28;5073077;28;9511;-55
2022/12/11 11:57:05;;;;;;;;;8.60;7.80;;;;;2.00;80.57;99265.50;5072135;28;8877;-56
2022/12/11 11:59:34;;;;;;;;;4.40;4.40;;;;;2.02;80.78;99257.53;5071567;28;8841;-57
2022/12/11 12:02:02;;;;;;;;;7.80;7.80;;;;;2.03;79.81;99265.31;5075572;28;8853;-58